Time;durP1;ratioP1;P1;durP2;ratioP2;P2;SDS_P1;SDS_P2;PMS_P1;PMS_P2;Temp;Humidity;BMP_temperature;BMP_pressure;BME280_temperature;BME280_humidity;BME280_pressure;Samples;Min_cycle;Max_cycle;Signal;HPM_P1;HPM_P2
2022/07/03 00:04:27;;;;;;;2.60;2.40;;;;;;;;;;10230878;28;20102;-82
2022/07/03 00:09:47;;;;;;;2.50;2.30;;;;;;;;;;10244749;28;20059;-82
2022/07/03 00:15:07;;;;;;;2.40;2.20;;;;;;;;;;10243601;28;20118;-82
2022/07/03 00:20:28;;;;;;;2.00;1.88;;;;;;;;;;10233705;28;20059;-82
2022/07/03 00:25:49;;;;;;;2.28;2.08;;;;;;;;;;10256368;28;20060;-82
2022/07/03 00:31:09;;;;;;;1.98;1.88;;;;;;;;;;10239573;28;20040;-82
2022/07/03 00:36:36;;;;;;;2.50;2.30;;;;;;;;;;10231716;28;20403;-82
2022/07/03 00:42:00;;;;;;;2.10;2.00;;;;;;;;;;10228003;28;20487;-82
2022/07/03 00:47:24;;;;;;;3.47;2.10;;;;;;;;;;10230561;28;20491;-82
2022/07/03 00:52:45;;;;;;;2.03;1.92;;;;;;;;;;10235224;28;20039;-82
2022/07/03 00:58:05;;;;;;;2.30;2.10;;;;;;;;;;10233869;28;20051;-82
2022/07/03 01:03:26;;;;;;;2.60;2.03;;;;;;;;;;10242621;28;20426;-82
2022/07/03 01:08:50;;;;;;;2.78;1.85;;;;;;;;;;10230711;28;20531;-82
2022/07/03 01:14:23;;;;;;;2.30;2.10;;;;;;;;;;10233654;28;20044;-82
2022/07/03 01:19:43;;;;;;;2.30;2.10;;;;;;;;;;10240308;28;20040;-82
2022/07/03 01:25:15;;;;;;;2.30;2.10;;;;;;;;;;10234845;29;20098;-82
2022/07/03 01:30:55;;;;;;;2.00;1.90;;;;;;;;;;10240152;28;20043;-82
2022/07/03 01:36:15;;;;;;;2.23;2.00;;;;;;;;;;10238931;28;20043;-82
2022/07/03 01:41:36;;;;;;;2.25;2.05;;;;;;;;;;10208554;29;20047;-82
2022/07/03 01:46:57;;;;;;;2.10;2.00;;;;;;;;;;10248159;28;20122;-82
2022/07/03 01:52:17;;;;;;;2.20;2.10;;;;;;;;;;10235871;28;20039;-82
2022/07/03 01:57:47;;;;;;;1.88;1.77;;;;;;;;;;10239787;28;20114;-82
2022/07/03 02:03:06;;;;;;;2.00;1.80;;;;;;;;;;10242451;28;20124;-82
2022/07/03 02:08:29;;;;;;;2.10;2.00;;;;;;;;;;10256091;28;20051;-82
2022/07/03 02:14:07;;;;;;;2.20;2.00;;;;;;;;;;10237165;28;20051;-82
2022/07/03 02:19:33;;;;;;;2.10;1.90;;;;;;;;;;10241783;28;20046;-82
2022/07/03 02:24:56;;;;;;;1.92;1.83;;;;;;;;;;10232031;28;20527;-82
2022/07/03 02:30:16;;;;;;;1.88;1.77;;;;;;;;;;10245193;28;20043;-82
2022/07/03 02:35:36;;;;;;;1.85;1.75;;;;;;;;;;10222155;28;20048;-83
2022/07/03 02:41:04;;;;;;;1.90;1.80;;;;;;;;;;10222462;28;20067;-82
2022/07/03 02:52:24;;;;;;;2.22;2.03;;;;;;;;;;10248898;28;20105;-83
2022/07/03 02:57:43;;;;;;;1.97;1.87;;;;;;;;;;10265416;28;20043;-82
2022/07/03 03:03:03;;;;;;;1.88;1.73;;;;;;;;;;10214645;28;20470;-82
2022/07/03 03:08:22;;;;;;;1.92;1.70;;;;;;;;;;10249860;28;20039;-83
2022/07/03 03:13:45;;;;;;;1.98;1.88;;;;;;;;;;10235241;28;20055;-82
2022/07/03 03:19:05;;;;;;;1.80;1.70;;;;;;;;;;10251649;28;20079;-82
2022/07/03 03:24:24;;;;;;;2.20;2.10;;;;;;;;;;10231555;28;20070;-82
2022/07/03 03:29:44;;;;;;;1.98;1.88;;;;;;;;;;10250003;28;20109;-82
2022/07/03 03:35:04;;;;;;;1.88;1.77;;;;;;;;;;10233133;28;20102;-82
2022/07/03 03:40:23;;;;;;;2.20;1.90;;;;;;;;;;10226494;28;20418;-82
2022/07/03 03:45:42;;;;;;;1.80;1.70;;;;;;;;;;10233327;29;20181;-82
2022/07/03 03:51:02;;;;;;;1.90;1.80;;;;;;;;;;10242089;29;20044;-82
2022/07/03 03:56:21;;;;;;;1.88;1.77;;;;;;;;;;10238009;28;20047;-82
2022/07/03 04:01:40;;;;;;;2.00;1.90;;;;;;;;;;10211374;29;20404;-82
2022/07/03 04:06:59;;;;;;;1.95;1.85;;;;;;;;;;10224963;28;20043;-82
2022/07/03 04:12:19;;;;;;;1.88;1.77;;;;;;;;;;10230168;29;20056;-82
2022/07/03 04:17:38;;;;;;;2.15;2.05;;;;;;;;;;10231636;29;20043;-82
2022/07/03 04:22:58;;;;;;;1.92;1.83;;;;;;;;;;10214502;29;20055;-82
2022/07/03 04:28:18;;;;;;;1.92;1.83;;;;;;;;;;10230126;28;20106;-82
2022/07/03 04:33:37;;;;;;;1.75;1.65;;;;;;;;;;10236387;28;20050;-82
2022/07/03 04:38:57;;;;;;;2.08;1.95;;;;;;;;;;10253517;28;20043;-83
2022/07/03 04:44:16;;;;;;;2.17;1.98;;;;;;;;;;10227108;28;20097;-82
2022/07/03 04:49:35;;;;;;;2.08;1.80;;;;;;;;;;10239287;28;20051;-82
2022/07/03 04:54:54;;;;;;;2.17;1.80;;;;;;;;;;10248911;28;20558;-82
2022/07/03 05:00:14;;;;;;;1.80;1.70;;;;;;;;;;10238045;28;20043;-82
2022/07/03 05:05:33;;;;;;;1.70;1.60;;;;;;;;;;10231958;28;20055;-82
2022/07/03 05:10:52;;;;;;;1.75;1.65;;;;;;;;;;10239334;28;20044;-82
2022/07/03 05:16:12;;;;;;;1.95;1.80;;;;;;;;;;10239958;28;20047;-83
2022/07/03 05:21:31;;;;;;;1.88;1.77;;;;;;;;;;10222586;29;20043;-82
2022/07/03 05:26:51;;;;;;;2.08;1.92;;;;;;;;;;10234659;28;20077;-82
2022/07/03 05:32:10;;;;;;;1.83;1.73;;;;;;;;;;10249918;28;20047;-82
2022/07/03 05:37:30;;;;;;;1.75;1.65;;;;;;;;;;10246181;28;20488;-82
2022/07/03 05:42:49;;;;;;;1.92;1.83;;;;;;;;;;10248279;28;20043;-82
2022/07/03 05:48:08;;;;;;;1.90;1.80;;;;;;;;;;10254250;28;20046;-82
2022/07/03 05:53:28;;;;;;;1.70;1.60;;;;;;;;;;10240656;28;20043;-82
2022/07/03 05:58:47;;;;;;;1.80;1.70;;;;;;;;;;10258983;28;20039;-82
2022/07/03 06:04:06;;;;;;;2.20;2.00;;;;;;;;;;10223557;28;20054;-82
2022/07/03 06:09:26;;;;;;;1.80;1.70;;;;;;;;;;10234783;28;20043;-82
2022/07/03 06:14:45;;;;;;;1.88;1.77;;;;;;;;;;10233349;28;20069;-83
2022/07/03 06:20:06;;;;;;;1.70;1.60;;;;;;;;;;10215241;28;20480;-82
2022/07/03 06:25:25;;;;;;;1.83;1.70;;;;;;;;;;10228962;28;20059;-82
2022/07/03 06:30:45;;;;;;;1.80;1.70;;;;;;;;;;10272331;28;20043;-82
2022/07/03 06:36:04;;;;;;;1.70;1.60;;;;;;;;;;10252341;28;20391;-82
2022/07/03 06:41:23;;;;;;;1.77;1.67;;;;;;;;;;10258042;28;20119;-82
2022/07/03 06:46:43;;;;;;;1.65;1.55;;;;;;;;;;10243722;28;20407;-82
2022/07/03 06:52:02;;;;;;;2.13;1.92;;;;;;;;;;10260006;28;20051;-82
2022/07/03 06:57:22;;;;;;;1.83;1.73;;;;;;;;;;10240894;28;20039;-82
2022/07/03 07:02:41;;;;;;;1.73;1.63;;;;;;;;;;10252570;28;20043;-82
2022/07/03 07:08:00;;;;;;;1.75;1.65;;;;;;;;;;10227896;28;20094;-82
2022/07/03 07:13:20;;;;;;;1.80;1.70;;;;;;;;;;10224064;28;20043;-82
2022/07/03 07:18:43;;;;;;;1.65;1.55;;;;;;;;;;10226991;28;20047;-82
2022/07/03 07:24:03;;;;;;;1.60;1.50;;;;;;;;;;10226792;28;20098;-82
2022/07/03 07:29:22;;;;;;;1.63;1.52;;;;;;;;;;10230509;28;20851;-82
2022/07/03 07:34:43;;;;;;;1.58;1.48;;;;;;;;;;10225499;29;20077;-83
2022/07/03 07:40:02;;;;;;;1.75;1.65;;;;;;;;;;10222396;28;20094;-82
2022/07/03 07:45:22;;;;;;;1.65;1.55;;;;;;;;;;10200796;29;20082;-83
2022/07/03 07:50:41;;;;;;;1.80;1.70;;;;;;;;;;10210684;29;20383;-83
2022/07/03 07:56:01;;;;;;;1.80;1.70;;;;;;;;;;10210912;29;20043;-83
2022/07/03 08:06:58;;;;;;;1.70;1.60;;;;;;;;;;10233768;28;20054;-82
2022/07/03 08:12:17;;;;;;;1.55;1.45;;;;;;;;;;10227649;28;20043;-84
2022/07/03 08:17:37;;;;;;;3.42;1.98;;;;;;;;;;10230891;28;20040;-82
2022/07/03 08:22:56;;;;;;;1.88;1.70;;;;;;;;;;10228720;28;20052;-82
2022/07/03 08:28:16;;;;;;;2.17;1.73;;;;;;;;;;10237089;28;20055;-82
2022/07/03 08:33:35;;;;;;;1.70;1.58;;;;;;;;;;10231283;28;20051;-82
2022/07/03 08:38:56;;;;;;;1.70;1.60;;;;;;;;;;10243092;28;20049;-82
2022/07/03 08:44:17;;;;;;;1.73;1.60;;;;;;;;;;10237354;28;20451;-83
2022/07/03 08:49:37;;;;;;;2.55;1.98;;;;;;;;;;10219242;28;20087;-82
2022/07/03 08:54:56;;;;;;;1.95;1.80;;;;;;;;;;10179571;29;20591;-83
2022/07/03 09:00:17;;;;;;;2.10;1.90;;;;;;;;;;10212034;28;20040;-82
2022/07/03 09:05:37;;;;;;;1.88;1.77;;;;;;;;;;10218773;28;20039;-82
2022/07/03 09:10:56;;;;;;;1.75;1.65;;;;;;;;;;10223816;28;20047;-83
2022/07/03 09:16:16;;;;;;;2.08;1.80;;;;;;;;;;10213768;29;20047;-82
2022/07/03 09:21:37;;;;;;;1.80;1.70;;;;;;;;;;10200341;28;20048;-83
2022/07/03 09:26:57;;;;;;;2.00;1.90;;;;;;;;;;10224541;28;20054;-82
2022/07/03 09:32:16;;;;;;;1.77;1.67;;;;;;;;;;10236917;28;20075;-82
2022/07/03 09:37:36;;;;;;;1.70;1.60;;;;;;;;;;10241710;28;20056;-82
2022/07/03 09:43:06;;;;;;;2.50;2.00;;;;;;;;;;10225625;28;20050;-83
2022/07/03 09:48:26;;;;;;;3.30;1.75;;;;;;;;;;10250180;28;20052;-82
2022/07/03 09:53:45;;;;;;;2.72;1.80;;;;;;;;;;10231553;28;20044;-82
2022/07/03 09:59:12;;;;;;;2.90;1.83;;;;;;;;;;10226321;28;20043;-83
2022/07/03 10:04:31;;;;;;;3.00;1.73;;;;;;;;;;10233852;28;20447;-84
2022/07/03 10:09:50;;;;;;;2.63;1.88;;;;;;;;;;10229357;28;20031;-84
2022/07/03 10:15:10;;;;;;;2.97;1.85;;;;;;;;;;10224684;28;20047;-83
2022/07/03 10:20:50;;;;;;;4.80;2.00;;;;;;;;;;10207817;28;20040;-83
2022/07/03 10:26:10;;;;;;;1.92;1.83;;;;;;;;;;10202683;29;20070;-83
2022/07/03 10:31:31;;;;;;;2.03;1.70;;;;;;;;;;10192626;28;20040;-83
2022/07/03 10:36:52;;;;;;;2.30;1.85;;;;;;;;;;10223097;28;20095;-83
2022/07/03 10:47:54;;;;;;;2.88;1.77;;;;;;;;;;10223159;28;20471;-83
2022/07/03 10:53:23;;;;;;;4.13;1.63;;;;;;;;;;10222594;28;20440;-84
2022/07/03 10:58:56;;;;;;;2.05;1.73;;;;;;;;;;10222410;28;20551;-83
2022/07/03 11:04:15;;;;;;;1.92;1.77;;;;;;;;;;10207582;28;20047;-84
2022/07/03 11:09:34;;;;;;;2.08;1.48;;;;;;;;;;10216325;28;20044;-84
2022/07/03 11:15:13;;;;;;;1.95;1.60;;;;;;;;;;10209749;29;20046;-84
2022/07/03 11:20:34;;;;;;;1.50;1.40;;;;;;;;;;10209880;28;20099;-84
2022/07/03 11:25:54;;;;;;;3.53;2.00;;;;;;;;;;10205377;28;20067;-83
2022/07/03 11:31:18;;;;;;;2.33;1.60;;;;;;;;;;10226417;28;20044;-83
2022/07/03 11:36:37;;;;;;;1.60;1.50;;;;;;;;;;10221972;28;20417;-83
2022/07/03 11:41:56;;;;;;;1.83;1.73;;;;;;;;;;10197150;29;20055;-83
2022/07/03 11:47:15;;;;;;;2.85;2.10;;;;;;;;;;10204309;28;20842;-83
2022/07/03 11:52:35;;;;;;;2.50;1.80;;;;;;;;;;10213954;28;20044;-84
2022/07/03 11:57:54;;;;;;;1.60;1.50;;;;;;;;;;10209801;28;20048;-84
2022/07/03 12:03:21;;;;;;;1.50;1.40;;;;;;;;;;10237001;28;20095;-83
2022/07/03 12:08:45;;;;;;;1.58;1.48;;;;;;;;;;10242062;28;20106;-84
2022/07/03 12:14:05;;;;;;;1.55;1.45;;;;;;;;;;10238665;28;20432;-83
2022/07/03 12:19:24;;;;;;;1.70;1.60;;;;;;;;;;10214140;28;20040;-83
2022/07/03 12:24:54;;;;;;;1.50;1.40;;;;;;;;;;10208232;28;20401;-84
2022/07/03 12:30:22;;;;;;;2.63;1.38;;;;;;;;;;10198098;29;20043;-83
2022/07/03 12:35:42;;;;;;;1.52;1.42;;;;;;;;;;10210835;28;20047;-84
2022/07/03 12:41:05;;;;;;;1.40;1.30;;;;;;;;;;10201299;28;20040;-84
2022/07/03 12:46:25;;;;;;;1.67;1.55;;;;;;;;;;10227849;28;20403;-84
2022/07/03 12:51:53;;;;;;;2.67;1.50;;;;;;;;;;10225088;28;20044;-84
2022/07/03 13:02:51;;;;;;;1.58;1.48;;;;;;;;;;10217217;28;20054;-84
2022/07/03 13:08:10;;;;;;;4.22;1.70;;;;;;;;;;10221678;28;20043;-84
2022/07/03 13:13:45;;;;;;;2.55;1.80;;;;;;;;;;10228564;28;20046;-85
2022/07/03 13:19:06;;;;;;;3.13;1.83;;;;;;;;;;10221799;28;20123;-84
2022/07/03 13:24:25;;;;;;;9.85;3.70;;;;;;;;;;10227967;28;20066;-84
2022/07/03 13:29:44;;;;;;;7.05;3.53;;;;;;;;;;10222727;28;20059;-84
2022/07/03 13:35:04;;;;;;;6.10;3.10;;;;;;;;;;10227309;28;20040;-84
2022/07/03 13:40:24;;;;;;;5.97;2.60;;;;;;;;;;10239268;28;20043;-83
2022/07/03 13:45:43;;;;;;;4.72;2.95;;;;;;;;;;10239842;28;20040;-84
2022/07/03 13:51:02;;;;;;;8.38;2.65;;;;;;;;;;10202170;28;20491;-84
2022/07/03 13:56:22;;;;;;;4.22;2.50;;;;;;;;;;10217298;28;20043;-84
2022/07/03 14:01:41;;;;;;;4.10;2.67;;;;;;;;;;10223515;28;20095;-84
2022/07/03 14:07:00;;;;;;;4.25;2.85;;;;;;;;;;10213740;28;20123;-83
2022/07/03 14:12:19;;;;;;;3.78;2.38;;;;;;;;;;10224439;28;20055;-83
2022/07/03 14:17:38;;;;;;;5.32;2.28;;;;;;;;;;10205720;28;20043;-84
2022/07/03 14:22:58;;;;;;;3.25;2.33;;;;;;;;;;10220496;28;20055;-83
2022/07/03 14:33:55;;;;;;;3.33;2.40;;;;;;;;;;10207319;28;20048;-83
2022/07/03 14:39:15;;;;;;;2.90;2.30;;;;;;;;;;10201157;28;20500;-83
2022/07/03 14:44:35;;;;;;;3.42;2.20;;;;;;;;;;10223070;28;20066;-84
2022/07/03 14:49:54;;;;;;;4.57;2.13;;;;;;;;;;10199271;29;20039;-83
2022/07/03 14:55:14;;;;;;;4.95;2.50;;;;;;;;;;10193728;29;20055;-84
2022/07/03 15:00:34;;;;;;;2.53;2.10;;;;;;;;;;10210528;28;20116;-84
2022/07/03 15:05:54;;;;;;;3.42;2.58;;;;;;;;;;10211062;28;20059;-83
2022/07/03 15:16:59;;;;;;;2.60;2.00;;;;;;;;;;10225676;28;20036;-84
2022/07/03 15:22:19;;;;;;;2.83;1.80;;;;;;;;;;10238798;28;20058;-83
2022/07/03 15:27:39;;;;;;;2.65;2.17;;;;;;;;;;10232467;28;20054;-83
2022/07/03 15:33:00;;;;;;;3.97;2.13;;;;;;;;;;10206101;28;20055;-84
2022/07/03 15:38:26;;;;;;;2.47;1.85;;;;;;;;;;10201067;28;20051;-83
2022/07/03 15:44:05;;;;;;;2.83;2.22;;;;;;;;;;10207922;29;20040;-83
2022/07/03 15:49:33;;;;;;;2.20;2.00;;;;;;;;;;10222277;28;20043;-84
2022/07/03 15:54:59;;;;;;;3.10;2.00;;;;;;;;;;10227580;28;20058;-83
2022/07/03 16:00:20;;;;;;;5.53;2.15;;;;;;;;;;10210550;29;20407;-83
2022/07/03 16:05:42;;;;;;;2.17;1.80;;;;;;;;;;10197122;29;20099;-83
2022/07/03 16:11:01;;;;;;;2.10;1.90;;;;;;;;;;10214151;29;20404;-83
2022/07/03 16:16:21;;;;;;;3.25;1.73;;;;;;;;;;10202335;29;20043;-83
2022/07/03 16:21:40;;;;;;;2.22;1.88;;;;;;;;;;10219483;28;20031;-82
2022/07/03 16:27:00;;;;;;;2.13;1.63;;;;;;;;;;10203989;29;20542;-82
2022/07/03 16:32:19;;;;;;;4.00;1.95;;;;;;;;;;10231392;28;20047;-83
2022/07/03 16:37:39;;;;;;;2.65;1.80;;;;;;;;;;10218703;28;20042;-83
2022/07/03 16:43:00;;;;;;;1.88;1.67;;;;;;;;;;10230200;28;20111;-83
2022/07/03 16:48:24;;;;;;;2.15;1.70;;;;;;;;;;10226712;28;20047;-84
2022/07/03 16:53:43;;;;;;;2.00;1.50;;;;;;;;;;10223880;28;20040;-83
2022/07/03 16:59:03;;;;;;;1.65;1.55;;;;;;;;;;10216748;28;20042;-83
2022/07/03 17:04:25;;;;;;;2.15;1.70;;;;;;;;;;10226973;28;20047;-82
2022/07/03 17:09:45;;;;;;;2.40;1.42;;;;;;;;;;10220902;28;20047;-83
2022/07/03 17:15:05;;;;;;;1.80;1.60;;;;;;;;;;10222809;28;20059;-81
2022/07/03 17:20:26;;;;;;;4.47;1.80;;;;;;;;;;10208153;28;20044;-81
2022/07/03 17:25:50;;;;;;;1.85;1.58;;;;;;;;;;10219123;29;20607;-81
2022/07/03 17:31:14;;;;;;;1.50;1.40;;;;;;;;;;10239788;28;20121;-82
2022/07/03 17:36:34;;;;;;;1.80;1.50;;;;;;;;;;10211727;28;20040;-81
2022/07/03 17:41:55;;;;;;;2.58;1.90;;;;;;;;;;10221727;28;20569;-81
2022/07/03 17:47:15;;;;;;;3.45;1.67;;;;;;;;;;10232053;28;20047;-81
2022/07/03 17:52:35;;;;;;;2.10;1.60;;;;;;;;;;10215270;28;20055;-80
2022/07/03 17:57:55;;;;;;;2.00;1.80;;;;;;;;;;10238619;28;20468;-81
2022/07/03 18:03:14;;;;;;;3.03;1.90;;;;;;;;;;10225953;28;20051;-81
2022/07/03 18:08:46;;;;;;;2.63;1.90;;;;;;;;;;10232730;28;20048;-81
2022/07/03 18:14:12;;;;;;;2.45;1.92;;;;;;;;;;10228523;28;20515;-81
2022/07/03 18:19:31;;;;;;;2.08;1.90;;;;;;;;;;10227339;28;20058;-81
2022/07/03 18:24:52;;;;;;;2.20;1.55;;;;;;;;;;10206192;28;20055;-81
2022/07/03 18:30:13;;;;;;;1.80;1.60;;;;;;;;;;10237174;28;20098;-81
2022/07/03 18:35:33;;;;;;;5.25;2.30;;;;;;;;;;10205168;29;20040;-81
2022/07/03 18:40:52;;;;;;;2.08;1.88;;;;;;;;;;10224443;28;20040;-81
2022/07/03 18:46:12;;;;;;;3.70;1.92;;;;;;;;;;10214175;28;20454;-81
2022/07/03 18:51:50;;;;;;;2.17;2.03;;;;;;;;;;10222440;28;20035;-83
2022/07/03 18:57:24;;;;;;;2.72;2.25;;;;;;;;;;10224873;28;20099;-82
2022/07/03 19:02:53;;;;;;;3.25;2.38;;;;;;;;;;10230353;28;20039;-83
2022/07/03 19:08:20;;;;;;;2.58;2.38;;;;;;;;;;10226247;28;20047;-83
2022/07/03 19:13:45;;;;;;;3.17;2.60;;;;;;;;;;10224751;28;20403;-83
2022/07/03 19:19:05;;;;;;;3.42;2.60;;;;;;;;;;10226256;28;20047;-82
2022/07/03 19:24:25;;;;;;;2.58;2.38;;;;;;;;;;10211472;28;20044;-83
2022/07/03 19:29:45;;;;;;;2.92;2.63;;;;;;;;;;10202694;28;20052;-85
2022/07/03 19:35:04;;;;;;;2.22;2.10;;;;;;;;;;10207352;29;20050;-87
2022/07/03 19:40:24;;;;;;;4.15;2.53;;;;;;;;;;10235946;28;20043;-87
2022/07/03 19:45:43;;;;;;;2.97;2.45;;;;;;;;;;10224900;28;20055;-88
2022/07/03 19:51:02;;;;;;;2.75;2.55;;;;;;;;;;10227610;29;20040;-86
2022/07/03 19:56:21;;;;;;;3.03;2.63;;;;;;;;;;10218921;28;20051;-86
2022/07/03 20:01:41;;;;;;;3.63;2.47;;;;;;;;;;10204442;29;20055;-83
2022/07/03 20:07:00;;;;;;;3.10;2.83;;;;;;;;;;10215210;28;20048;-86
2022/07/03 20:12:20;;;;;;;3.05;2.47;;;;;;;;;;10222430;28;20120;-83
2022/07/03 20:17:39;;;;;;;2.88;2.53;;;;;;;;;;10223278;28;20039;-84
2022/07/03 20:23:00;;;;;;;3.47;2.78;;;;;;;;;;10220834;28;20127;-85
2022/07/03 20:28:19;;;;;;;3.95;2.60;;;;;;;;;;10237464;28;20562;-84
2022/07/03 20:33:38;;;;;;;3.20;2.90;;;;;;;;;;10229012;28;20475;-84
2022/07/03 20:38:58;;;;;;;3.53;2.50;;;;;;;;;;10234875;28;20415;-85
2022/07/03 20:44:17;;;;;;;3.80;2.60;;;;;;;;;;10238037;28;20032;-84
2022/07/03 20:49:37;;;;;;;4.95;3.00;;;;;;;;;;10238022;28;20385;-84
2022/07/03 20:54:57;;;;;;;3.88;2.75;;;;;;;;;;10231441;28;20407;-84
2022/07/03 21:00:16;;;;;;;3.08;2.78;;;;;;;;;;10216642;28;20074;-83
2022/07/03 21:05:35;;;;;;;4.30;2.80;;;;;;;;;;10231943;28;20050;-83
2022/07/03 21:16:33;;;;;;;3.70;3.22;;;;;;;;;;10244103;28;20043;-84
2022/07/03 21:21:52;;;;;;;3.17;2.90;;;;;;;;;;10227997;29;20517;-83
2022/07/03 21:27:13;;;;;;;3.25;2.95;;;;;;;;;;10248127;28;20507;-83
2022/07/03 21:32:32;;;;;;;2.58;2.38;;;;;;;;;;10245742;28;20047;-83
2022/07/03 21:37:51;;;;;;;3.03;2.83;;;;;;;;;;10246156;28;20040;-84
2022/07/03 21:43:10;;;;;;;3.22;2.92;;;;;;;;;;10245518;28;20074;-83
2022/07/03 21:48:30;;;;;;;3.10;2.80;;;;;;;;;;10247047;28;20106;-83
2022/07/03 21:53:50;;;;;;;3.22;2.92;;;;;;;;;;10225545;28;20043;-84
2022/07/03 21:59:10;;;;;;;3.30;3.00;;;;;;;;;;10224642;28;20044;-83
2022/07/03 22:04:29;;;;;;;3.30;2.67;;;;;;;;;;10237531;28;20591;-83
2022/07/03 22:09:48;;;;;;;3.25;2.95;;;;;;;;;;10242971;29;20225;-83
2022/07/03 22:15:09;;;;;;;2.90;2.70;;;;;;;;;;10235057;29;20031;-83
2022/07/03 22:20:28;;;;;;;3.85;2.80;;;;;;;;;;10249813;28;20396;-84
2022/07/03 22:25:47;;;;;;;2.90;2.70;;;;;;;;;;10223951;28;20056;-84
2022/07/03 22:36:45;;;;;;;3.15;2.85;;;;;;;;;;10239596;28;20388;-83
2022/07/03 22:42:05;;;;;;;3.90;3.10;;;;;;;;;;10242368;28;20050;-83
2022/07/03 22:47:24;;;;;;;2.80;2.60;;;;;;;;;;10243160;28;20058;-83
2022/07/03 22:52:43;;;;;;;2.92;2.72;;;;;;;;;;10250576;28;20031;-83
2022/07/03 22:58:03;;;;;;;2.90;2.70;;;;;;;;;;10243467;28;20039;-83
2022/07/03 23:03:22;;;;;;;2.80;2.60;;;;;;;;;;10242878;28;20047;-83
2022/07/03 23:08:41;;;;;;;2.45;2.25;;;;;;;;;;10248575;28;20534;-83
2022/07/03 23:14:01;;;;;;;3.28;2.55;;;;;;;;;;10232210;28;20096;-83
2022/07/03 23:19:20;;;;;;;2.58;2.38;;;;;;;;;;10247214;28;20043;-83
2022/07/03 23:24:39;;;;;;;2.40;2.20;;;;;;;;;;10253349;28;20111;-83
2022/07/03 23:29:59;;;;;;;4.30;2.40;;;;;;;;;;10247520;28;20054;-83
2022/07/03 23:35:18;;;;;;;2.92;2.42;;;;;;;;;;10261241;28;20047;-83
2022/07/03 23:40:37;;;;;;;2.55;2.35;;;;;;;;;;10262476;28;20044;-83
2022/07/03 23:45:57;;;;;;;2.55;2.35;;;;;;;;;;10227850;29;20055;-83
2022/07/03 23:51:16;;;;;;;3.45;2.35;;;;;;;;;;10220002;29;20047;-83
2022/07/03 23:56:35;;;;;;;2.30;2.10;;;;;;;;;;10235451;29;20043;-83
